Terminal Aerodrome Forecast
Issued by NWS

Home | Current Version | Previous Version | Text Only | Print | Product List | Glossary On
Versions: 1 2 3 4 5 6 7 8 9 10 11 12 13 14 15 16 17 18 19 20
000
FTUS44 KLIX 221100
TAFMCB
TAF
KMCB 221133Z 2212/2312 00000KT P6SM SKC
     FM221400 VRB03KT P6SM SCT050
     FM221800 VRB05KT P6SM VCTS SCT035CB BKN050
      TEMPO 2220/2224 VRB20G30KT 2SM TSRA BKN035CB
     FM230100 VRB03KT P6SM SCT050 BKN160=

USA.gov is the U.S. government's official web portal to all federal, state and local government web resources and services.